Time;durP1;ratioP1;P1;durP2;ratioP2;P2;SDS_P1;SDS_P2;PMS_P1;PMS_P2;Temp;Humidity;BMP_temperature;BMP_pressure;BME280_temperature;BME280_humidity;BME280_pressure;Samples;Min_cycle;Max_cycle;Signal;HPM_P1;HPM_P2
2024/01/28 00:02:47;;;;;;;3.25;1.92;;;;;;;-2.34;89.59;101802.19;10369652;28;20052;-71
2024/01/28 00:07:50;;;;;;;2.58;1.88;;;;;;;-2.38;89.25;101800.84;10385674;28;20041;-71
2024/01/28 00:12:52;;;;;;;3.00;1.63;;;;;;;-2.42;88.39;101805.72;10336376;28;20544;-72
2024/01/28 00:17:57;;;;;;;2.30;1.90;;;;;;;-2.50;86.67;101808.38;10369357;28;20042;-71
2024/01/28 00:23:01;;;;;;;2.30;1.45;;;;;;;-2.51;86.38;101812.09;10369561;28;20516;-71
2024/01/28 00:28:05;;;;;;;2.97;1.88;;;;;;;-2.51;86.54;101817.44;10352511;28;20044;-71
2024/01/28 00:33:07;;;;;;;1.88;1.33;;;;;;;-2.55;86.18;101816.94;10396435;28;20042;-71
2024/01/28 00:38:10;;;;;;;4.13;2.38;;;;;;;-2.53;86.66;101814.09;10384424;28;20045;-71
2024/01/28 00:43:12;;;;;;;5.53;2.08;;;;;;;-2.53;86.39;101806.03;10368439;28;20355;-70
2024/01/28 00:48:14;;;;;;;2.60;1.77;;;;;;;-2.53;86.66;101823.00;10367105;28;20046;-70
2024/01/28 00:53:18;;;;;;;3.13;2.50;;;;;;;-2.52;86.94;101837.28;10352860;28;20058;-70
2024/01/28 00:58:20;;;;;;;2.95;2.28;;;;;;;-2.69;86.77;101839.09;10402086;28;20057;-71
2024/01/28 01:03:23;;;;;;;2.42;2.00;;;;;;;-2.67;86.48;101830.88;10367923;28;20052;-70
2024/01/28 01:08:25;;;;;;;3.33;2.55;;;;;;;-2.86;86.68;101832.00;10367918;28;20034;-70
2024/01/28 01:13:28;;;;;;;5.18;3.03;;;;;;;-2.94;86.93;101838.22;10368973;28;20046;-70
2024/01/28 01:18:31;;;;;;;3.97;2.67;;;;;;;-2.95;87.09;101839.22;10387997;28;20046;-70
2024/01/28 01:23:33;;;;;;;3.90;2.65;;;;;;;-3.05;87.29;101827.75;10386016;28;20048;-70
2024/01/28 01:28:37;;;;;;;3.72;2.20;;;;;;;-3.15;86.74;101824.34;10390389;28;20045;-70
2024/01/28 01:33:41;;;;;;;4.60;2.15;;;;;;;-3.17;87.16;101832.56;10375458;28;20048;-70
2024/01/28 01:38:44;;;;;;;5.05;2.38;;;;;;;-3.20;87.09;101837.44;10391195;28;20045;-70
2024/01/28 01:43:46;;;;;;;3.05;2.03;;;;;;;-3.16;87.49;101844.16;10390778;28;20049;-70
2024/01/28 01:48:49;;;;;;;2.45;1.67;;;;;;;-3.25;87.34;101855.88;10408200;28;20045;-70
2024/01/28 01:53:52;;;;;;;3.65;2.13;;;;;;;-3.28;87.63;101865.09;10390635;28;20058;-70
2024/01/28 01:58:55;;;;;;;3.33;2.42;;;;;;;-3.24;87.84;101857.56;10390510;28;20037;-70
2024/01/28 02:03:58;;;;;;;3.28;2.22;;;;;;;-3.23;88.02;101862.75;10390105;28;20041;-70
2024/01/28 02:09:01;;;;;;;6.30;2.15;;;;;;;-3.19;88.42;101860.59;10391123;28;20433;-70
2024/01/28 02:14:03;;;;;;;3.47;2.13;;;;;;;-3.14;88.33;101851.03;10373327;28;20042;-70
2024/01/28 02:19:05;;;;;;;3.90;2.15;;;;;;;-3.17;88.38;101847.84;10374024;28;20058;-71
2024/01/28 02:24:08;;;;;;;3.70;2.10;;;;;;;-3.06;88.86;101847.56;10406998;28;20057;-70
2024/01/28 02:29:11;;;;;;;4.03;2.08;;;;;;;-3.03;88.79;101840.00;10356995;28;20571;-70
2024/01/28 02:34:13;;;;;;;3.83;2.63;;;;;;;-2.93;89.04;101831.84;10389526;28;20045;-70
2024/01/28 02:39:16;;;;;;;5.07;3.15;;;;;;;-2.91;89.06;101831.66;10388818;28;20049;-70
2024/01/28 02:44:18;;;;;;;2.50;2.05;;;;;;;-2.88;88.50;101834.84;10389406;28;20041;-70
2024/01/28 02:49:21;;;;;;;6.28;3.08;;;;;;;-2.85;88.57;101818.41;10388137;28;20401;-70
2024/01/28 02:54:24;;;;;;;4.20;2.78;;;;;;;-2.84;88.81;101828.16;10405539;28;20049;-71
2024/01/28 02:59:26;;;;;;;5.13;2.42;;;;;;;-2.78;88.66;101837.38;10355945;28;20560;-71
2024/01/28 03:04:29;;;;;;;4.65;2.30;;;;;;;-2.81;89.26;101835.03;10355332;28;20048;-71
2024/01/28 03:09:31;;;;;;;3.13;1.90;;;;;;;-2.82;89.71;101836.88;10387806;28;20042;-72
2024/01/28 03:14:34;;;;;;;4.10;2.38;;;;;;;-2.84;90.11;101838.06;10356022;28;20042;-72
2024/01/28 03:19:36;;;;;;;3.10;2.28;;;;;;;-2.74;89.66;101844.97;10371312;28;20053;-71
2024/01/28 03:24:40;;;;;;;4.25;1.95;;;;;;;-2.66;90.25;101851.34;10371147;28;20077;-71
2024/01/28 03:29:42;;;;;;;2.15;1.58;;;;;;;-2.65;89.81;101845.81;10386709;28;20436;-71
2024/01/28 03:34:45;;;;;;;3.10;2.25;;;;;;;-2.68;89.99;101843.47;10370577;28;20042;-71
2024/01/28 03:39:48;;;;;;;4.53;2.85;;;;;;;-2.65;90.27;101831.53;10370516;28;20056;-71
2024/01/28 03:44:50;;;;;;;4.38;2.63;;;;;;;-2.66;90.13;101828.00;10370064;28;20030;-71
2024/01/28 03:49:53;;;;;;;4.18;2.65;;;;;;;-2.65;90.41;101839.59;10369263;28;20041;-71
2024/01/28 03:54:55;;;;;;;2.03;1.83;;;;;;;-2.64;90.35;101835.91;10329410;28;20066;-71
2024/01/28 03:59:57;;;;;;;4.28;2.28;;;;;;;-2.65;91.12;101848.50;10345351;28;20055;-72
2024/01/28 04:05:00;;;;;;;8.95;3.13;;;;;;;-2.60;90.70;101837.28;10328632;28;20498;-71
2024/01/28 04:10:03;;;;;;;4.13;2.10;;;;;;;-2.62;90.91;101825.81;10345005;28;20057;-71
2024/01/28 04:15:06;;;;;;;3.47;2.20;;;;;;;-2.58;91.20;101833.41;10360943;28;20509;-71
2024/01/28 04:20:08;;;;;;;3.30;2.08;;;;;;;-2.54;91.05;101833.91;10328537;28;20054;-71
2024/01/28 04:25:12;;;;;;;3.85;2.08;;;;;;;-2.57;91.55;101832.41;10360538;28;20038;-71
2024/01/28 04:30:15;;;;;;;4.32;2.50;;;;;;;-2.63;91.84;101825.00;10344581;28;20046;-71
2024/01/28 04:35:17;;;;;;;3.83;2.40;;;;;;;-2.57;92.18;101823.50;10344487;28;20042;-71
2024/01/28 04:40:20;;;;;;;2.80;2.05;;;;;;;-2.55;92.17;101816.13;10365023;28;20038;-71
2024/01/28 04:45:22;;;;;;;5.07;2.28;;;;;;;-2.53;92.09;101828.38;10362346;28;20049;-71
2024/01/28 04:50:24;;;;;;;2.95;1.75;;;;;;;-2.53;92.41;101831.06;10327737;28;20074;-70
2024/01/28 04:55:27;;;;;;;3.08;2.20;;;;;;;-2.54;92.70;101839.28;10343504;28;20061;-70
2024/01/28 05:00:29;;;;;;;3.67;2.03;;;;;;;-2.52;92.52;101848.03;10345995;28;20061;-70
2024/01/28 05:05:31;;;;;;;2.80;2.05;;;;;;;-2.47;92.28;101854.56;10352030;28;20046;-70
2024/01/28 05:10:33;;;;;;;1.60;1.42;;;;;;;-2.48;92.63;101844.00;10352222;28;20045;-70
2024/01/28 05:15:36;;;;;;;3.17;1.65;;;;;;;-2.45;92.72;101830.22;10367318;28;20034;-71
2024/01/28 05:20:38;;;;;;;4.55;2.00;;;;;;;-2.42;92.53;101847.88;10351613;28;20046;-71
2024/01/28 05:25:41;;;;;;;2.92;2.10;;;;;;;-2.45;92.81;101857.09;10367531;28;20034;-71
2024/01/28 05:30:43;;;;;;;1.85;1.35;;;;;;;-2.42;92.26;101858.63;10334756;28;20506;-71
2024/01/28 05:35:45;;;;;;;2.70;1.48;;;;;;;-2.42;92.59;101850.56;10351079;28;20043;-72
2024/01/28 05:40:47;;;;;;;2.88;1.92;;;;;;;-2.45;93.03;101849.03;10334924;28;20035;-71
2024/01/28 05:45:50;;;;;;;2.38;1.83;;;;;;;-2.44;92.96;101851.53;10367060;28;20046;-71
2024/01/28 05:50:52;;;;;;;1.95;1.30;;;;;;;-2.42;93.66;101843.34;10350383;28;20042;-71
2024/01/28 05:55:54;;;;;;;2.35;1.60;;;;;;;-2.42;93.78;101864.00;10349629;28;20457;-71
2024/01/28 06:01:01;;;;;;;4.53;1.88;;;;;;;-2.42;93.42;101875.59;10349755;28;20038;-71
2024/01/28 06:06:03;;;;;;;2.30;1.58;;;;;;;-2.43;93.51;101879.25;10366059;28;20046;-71
2024/01/28 06:11:05;;;;;;;3.00;2.35;;;;;;;-2.47;93.63;101884.13;10365296;28;20038;-71
2024/01/28 06:16:08;;;;;;;2.53;1.58;;;;;;;-2.45;93.72;101879.44;10364851;28;20049;-73
2024/01/28 06:21:11;;;;;;;4.20;2.60;;;;;;;-2.38;93.85;101898.44;10349277;28;20069;-73
2024/01/28 06:26:13;;;;;;;5.50;2.08;;;;;;;-2.40;93.79;101913.06;10365126;28;20034;-70
2024/01/28 06:31:16;;;;;;;4.22;2.33;;;;;;;-2.38;94.15;101909.19;10348596;28;20038;-72
2024/01/28 06:36:21;;;;;;;2.97;2.00;;;;;;;-2.40;94.32;101913.91;10348340;28;20038;-72
2024/01/28 06:41:23;;;;;;;3.33;2.03;;;;;;;-2.42;94.34;101928.50;10348441;28;20050;-72
2024/01/28 06:46:26;;;;;;;3.50;1.92;;;;;;;-2.38;94.37;101922.63;10316442;28;20049;-73
2024/01/28 06:51:29;;;;;;;5.05;2.50;;;;;;;-2.40;94.14;101913.91;10363895;28;20530;-72
2024/01/28 06:56:31;;;;;;;4.03;2.58;;;;;;;-2.41;94.79;101917.59;10347849;28;20057;-70
2024/01/28 07:01:33;;;;;;;4.50;2.53;;;;;;;-2.39;94.86;101910.19;10347507;28;20126;-71
2024/01/28 07:06:36;;;;;;;2.20;1.73;;;;;;;-2.38;94.88;101913.72;10315050;28;20074;-73
2024/01/28 07:11:39;;;;;;;4.82;2.33;;;;;;;-2.40;94.95;101930.03;10347363;28;20046;-73
2024/01/28 07:16:43;;;;;;;3.33;2.40;;;;;;;-2.31;94.90;101934.41;10364362;28;20049;-70
2024/01/28 07:21:47;;;;;;;5.68;2.97;;;;;;;-2.35;94.78;101956.41;10330709;28;20049;-73
2024/01/28 07:26:50;;;;;;;4.20;2.47;;;;;;;-2.33;94.54;101968.66;10330117;28;20042;-73
2024/01/28 07:31:52;;;;;;;4.18;2.95;;;;;;;-2.32;94.19;101956.91;10346347;28;20046;-73
2024/01/28 07:36:56;;;;;;;5.10;2.80;;;;;;;-2.31;94.87;101947.00;10346293;28;20042;-71
2024/01/28 07:41:58;;;;;;;5.75;3.00;;;;;;;-2.33;95.96;101955.22;10362445;28;20038;-71
2024/01/28 07:47:02;;;;;;;4.80;2.80;;;;;;;-2.37;97.33;101953.88;10361951;28;20043;-69
2024/01/28 07:52:05;;;;;;;4.55;2.50;;;;;;;-2.41;98.17;101943.63;10347271;28;20038;-69
2024/01/28 07:57:08;;;;;;;4.35;2.38;;;;;;;-2.38;99.20;101937.94;10405891;28;20033;-72
2024/01/28 08:02:11;;;;;;;4.95;2.40;;;;;;;-2.32;99.37;101943.47;10388408;28;20505;-71
2024/01/28 08:07:14;;;;;;;4.07;2.35;;;;;;;-2.31;99.93;101950.53;10369615;28;20398;-71
2024/01/28 08:12:16;;;;;;;5.82;3.40;;;;;;;-2.29;99.66;101953.06;10369371;28;20033;-71
2024/01/28 08:17:18;;;;;;;4.00;2.33;;;;;;;-2.26;99.81;101944.66;10385280;28;20046;-73
2024/01/28 08:22:21;;;;;;;4.13;2.17;;;;;;;-2.24;99.40;101948.88;10368701;28;20041;-72
2024/01/28 08:27:24;;;;;;;5.07;2.97;;;;;;;-2.23;99.62;101945.19;10385647;28;20503;-72
2024/01/28 08:32:26;;;;;;;3.78;2.70;;;;;;;-2.17;99.89;101949.06;10368799;28;20050;-73
2024/01/28 08:37:29;;;;;;;5.65;2.45;;;;;;;-2.09;99.25;101938.28;10352258;28;20043;-71
2024/01/28 08:42:32;;;;;;;6.47;3.22;;;;;;;-1.98;99.25;101958.66;10368634;28;20046;-71
2024/01/28 08:47:36;;;;;;;5.10;2.88;;;;;;;-1.99;98.88;101954.28;10385259;28;20049;-71
2024/01/28 08:52:38;;;;;;;6.75;3.35;;;;;;;-1.98;99.02;101953.28;10367790;28;20526;-71
2024/01/28 08:57:43;;;;;;;5.15;2.65;;;;;;;-1.94;99.24;101965.38;10384287;28;20037;-71
2024/01/28 09:02:45;;;;;;;7.00;3.25;;;;;;;-1.98;99.59;101977.47;10368145;28;20045;-71
2024/01/28 09:07:48;;;;;;;9.00;3.55;;;;;;;-1.97;99.24;101976.47;10402087;28;20037;-72
2024/01/28 09:12:50;;;;;;;6.95;3.05;;;;;;;-1.82;99.23;101982.88;10367663;28;20527;-72
2024/01/28 09:17:53;;;;;;;7.63;3.47;;;;;;;-1.69;99.01;101974.31;10384053;28;20037;-72
2024/01/28 09:22:55;;;;;;;5.20;3.55;;;;;;;-1.73;98.29;101963.06;10367923;28;20046;-72
2024/01/28 09:27:58;;;;;;;6.30;3.03;;;;;;;-1.73;97.93;101965.75;10383629;28;20052;-71
2024/01/28 09:33:01;;;;;;;7.10;3.38;;;;;;;-1.79;97.72;101958.31;10384398;28;20046;-71
2024/01/28 09:38:03;;;;;;;4.82;3.05;;;;;;;-1.80;98.82;101964.72;10383472;28;20038;-71
2024/01/28 09:43:17;;;;;;;3.50;2.63;;;;;;;-1.63;98.31;101969.09;10383555;28;20042;-71
2024/01/28 09:48:19;;;;;;;3.15;2.08;;;;;;;-1.66;97.98;101974.81;10371852;28;20502;-71
2024/01/28 09:53:22;;;;;;;2.95;1.90;;;;;;;-1.54;98.72;101973.47;10374616;28;20054;-71
2024/01/28 09:58:24;;;;;;;4.70;2.83;;;;;;;-1.60;98.37;101986.75;10408303;28;20053;-71
2024/01/28 10:03:26;;;;;;;5.78;3.03;;;;;;;-1.55;98.12;101977.19;10390286;28;20395;-71
2024/01/28 10:08:30;;;;;;;3.78;2.40;;;;;;;-1.54;97.91;101986.09;10390801;28;20038;-71
2024/01/28 10:13:33;;;;;;;5.00;2.55;;;;;;;-1.50;98.35;101981.22;10373624;28;20061;-71
2024/01/28 10:18:35;;;;;;;3.42;2.10;;;;;;;-1.49;98.07;101986.41;10357754;28;20050;-71
2024/01/28 10:23:37;;;;;;;3.90;2.42;;;;;;;-1.50;98.29;101989.28;10373662;28;20049;-71
2024/01/28 10:28:40;;;;;;;2.67;1.35;;;;;;;-1.07;98.10;102002.34;10390108;28;20053;-72
2024/01/28 10:33:42;;;;;;;3.58;1.75;;;;;;;-0.89;96.59;101998.59;10389165;28;20041;-71
2024/01/28 10:38:46;;;;;;;3.17;1.88;;;;;;;-0.51;96.84;101986.19;10389139;28;20049;-72
2024/01/28 10:43:58;;;;;;;2.22;1.88;;;;;;;-0.56;95.56;101994.78;10389151;28;20042;-73
2024/01/28 10:49:04;;;;;;;3.10;1.83;;;;;;;-0.42;95.84;101985.13;10372372;28;20398;-71
2024/01/28 10:54:07;;;;;;;2.25;1.80;;;;;;;-0.33;94.58;101994.88;10340502;28;20057;-71
2024/01/28 10:59:09;;;;;;;3.28;2.10;;;;;;;-0.42;94.26;101993.22;10371990;28;20509;-71
2024/01/28 11:04:12;;;;;;;3.00;2.10;;;;;;;-0.65;94.71;101976.97;10371932;28;20049;-69
2024/01/28 11:09:14;;;;;;;2.80;1.65;;;;;;;-0.65;95.09;101977.81;10371400;28;20038;-69
2024/01/28 11:14:17;;;;;;;2.70;1.90;;;;;;;-0.42;94.92;101961.69;10371670;28;20057;-70
2024/01/28 11:19:20;;;;;;;2.88;2.10;;;;;;;-0.24;93.61;101966.81;10371493;28;20049;-70
2024/01/28 11:24:23;;;;;;;4.18;1.67;;;;;;;-0.33;93.42;101978.69;10373429;28;20042;-70
2024/01/28 11:29:34;;;;;;;2.95;1.40;;;;;;;-0.26;94.30;101976.94;10357715;28;20402;-70
2024/01/28 11:34:37;;;;;;;3.83;1.83;;;;;;;-0.05;92.88;101984.41;10370765;28;20038;-70
2024/01/28 11:39:46;;;;;;;2.03;1.88;;;;;;;-0.39;93.80;101980.22;10353977;28;20037;-69
2024/01/28 11:44:48;;;;;;;2.72;2.15;;;;;;;-0.19;94.44;101975.22;10370480;28;20048;-70
2024/01/28 11:49:52;;;;;;;3.05;2.47;;;;;;;-0.28;94.43;101989.78;10385875;28;20505;-72
2024/01/28 11:54:54;;;;;;;3.20;2.08;;;;;;;-0.59;95.56;101995.13;10385901;28;20046;-70
2024/01/28 11:59:56;;;;;;;3.20;1.40;;;;;;;-0.49;96.09;101994.94;10385799;28;20232;-70
2024/01/28 12:04:59;;;;;;;2.53;1.55;;;;;;;-0.47;96.39;102009.09;10369109;28;20417;-71
2024/01/28 12:10:09;;;;;;;2.20;1.52;;;;;;;-0.59;96.91;102022.09;10369616;28;20053;-70
2024/01/28 12:15:13;;;;;;;2.90;2.00;;;;;;;-0.65;96.80;102029.03;10385804;28;20038;-71
2024/01/28 12:20:21;;;;;;;1.92;1.42;;;;;;;-0.69;98.27;102030.41;10402538;28;20041;-71
2024/01/28 12:25:24;;;;;;;2.50;1.70;;;;;;;-0.65;98.59;102020.94;10368984;28;20045;-71
2024/01/28 12:30:26;;;;;;;2.88;1.85;;;;;;;-0.64;99.52;102011.00;10385087;28;20425;-71
2024/01/28 12:35:28;;;;;;;4.75;1.80;;;;;;;-0.52;99.08;102017.69;10402410;28;20050;-71
2024/01/28 12:40:31;;;;;;;2.47;1.67;;;;;;;-0.35;99.23;102030.09;10368851;28;19929;-71
2024/01/28 12:45:35;;;;;;;2.03;1.50;;;;;;;-0.36;98.23;102031.09;10352625;28;20044;-72
2024/01/28 12:50:37;;;;;;;2.63;1.98;;;;;;;-0.48;98.69;102028.97;10385180;28;20057;-70
2024/01/28 12:55:39;;;;;;;2.17;1.95;;;;;;;-0.28;98.61;102029.38;10367434;28;20061;-72
2024/01/28 13:00:41;;;;;;;2.55;1.65;;;;;;;-0.40;98.57;102039.72;10348218;28;20045;-71
2024/01/28 13:05:45;;;;;;;2.78;1.75;;;;;;;-0.57;99.97;102059.66;10382468;28;20045;-71
2024/01/28 13:10:47;;;;;;;1.70;1.33;;;;;;;-0.51;100.00;102054.44;10368549;28;20050;-71
2024/01/28 13:15:50;;;;;;;2.83;1.90;;;;;;;-0.38;100.00;102051.16;10384192;28;20049;-70
2024/01/28 13:20:53;;;;;;;3.30;1.77;;;;;;;-0.38;100.00;102068.19;10368918;28;20540;-71
2024/01/28 13:25:55;;;;;;;2.55;1.92;;;;;;;-0.42;100.00;102066.00;10375794;28;20044;-71
2024/01/28 13:30:58;;;;;;;2.60;1.90;;;;;;;-0.32;100.00;102072.91;10375271;28;20042;-72
2024/01/28 13:36:00;;;;;;;4.47;2.33;;;;;;;0.19;100.00;102051.75;10375301;28;20049;-71
2024/01/28 13:41:03;;;;;;;4.20;2.22;;;;;;;0.07;100.00;102045.06;10375311;28;20050;-71
2024/01/28 13:46:05;;;;;;;5.57;2.28;;;;;;;-0.45;100.00;102045.63;10374589;28;20041;-71
2024/01/28 13:51:07;;;;;;;2.30;1.85;;;;;;;-0.33;100.00;102036.16;10374621;28;20425;-71
2024/01/28 13:56:10;;;;;;;2.58;1.30;;;;;;;-0.33;100.00;102038.84;10374285;28;20050;-70
2024/01/28 14:01:12;;;;;;;2.05;1.33;;;;;;;-0.43;100.00;102040.06;10390684;28;20041;-69
2024/01/28 14:06:15;;;;;;;1.88;1.13;;;;;;;-0.38;100.00;102062.78;10373841;28;20045;-69
2024/01/28 14:11:17;;;;;;;3.83;2.13;;;;;;;-0.10;100.00;102060.50;10373918;28;20057;-69
2024/01/28 14:16:19;;;;;;;3.80;1.98;;;;;;;0.00;100.00;102060.28;10373801;28;20041;-69
2024/01/28 14:21:28;;;;;;;2.45;1.58;;;;;;;-0.19;100.00;102058.00;10373699;28;20374;-70
2024/01/28 14:26:30;;;;;;;2.90;1.92;;;;;;;0.02;100.00;102062.81;10357628;28;20042;-71
2024/01/28 14:31:33;;;;;;;2.28;1.45;;;;;;;-0.03;100.00;102074.09;10372779;28;20053;-71
2024/01/28 14:36:36;;;;;;;2.38;1.73;;;;;;;0.24;100.00;102076.31;10389808;28;20046;-71
2024/01/28 14:41:39;;;;;;;1.92;1.70;;;;;;;0.04;100.00;102080.50;10356643;28;20049;-71
2024/01/28 14:46:42;;;;;;;2.15;1.63;;;;;;;0.28;100.00;102083.03;10372583;28;20049;-71
2024/01/28 14:51:44;;;;;;;3.58;2.30;;;;;;;0.30;100.00;102089.09;10390617;28;20042;-71
2024/01/28 14:56:47;;;;;;;4.47;1.83;;;;;;;0.30;100.00;102101.75;10375648;28;20053;-71
2024/01/28 15:01:49;;;;;;;3.97;1.95;;;;;;;0.19;100.00;102099.47;10388408;28;20038;-71
2024/01/28 15:06:52;;;;;;;1.85;1.48;;;;;;;-0.02;100.00;102100.91;10372073;28;20045;-71
2024/01/28 15:11:55;;;;;;;2.40;1.77;;;;;;;0.09;100.00;102097.00;10355439;28;20049;-71
2024/01/28 15:16:57;;;;;;;2.28;1.42;;;;;;;0.22;100.00;102118.84;10355296;28;20073;-71
2024/01/28 15:21:59;;;;;;;3.72;2.13;;;;;;;0.17;100.00;102142.81;10371316;28;20038;-73
2024/01/28 15:27:03;;;;;;;2.47;1.90;;;;;;;0.13;100.00;102136.09;10370670;28;20398;-71
2024/01/28 15:32:06;;;;;;;2.58;1.50;;;;;;;0.04;100.00;102147.97;10387084;28;20053;-70
2024/01/28 15:37:08;;;;;;;3.55;1.67;;;;;;;0.15;100.00;102128.66;10355254;28;20217;-71
2024/01/28 15:42:11;;;;;;;2.42;1.50;;;;;;;0.14;100.00;102101.84;10370275;28;20050;-71
2024/01/28 15:47:15;;;;;;;3.97;1.70;;;;;;;0.14;100.00;102091.88;10386613;28;20038;-71
2024/01/28 15:52:18;;;;;;;2.53;1.58;;;;;;;0.10;100.00;102103.22;10370713;28;20058;-71
2024/01/28 15:57:21;;;;;;;4.82;2.10;;;;;;;0.25;100.00;102109.56;10369686;28;20519;-72
2024/01/28 16:02:23;;;;;;;6.88;3.05;;;;;;;0.23;100.00;102135.91;10369670;28;20037;-71
2024/01/28 16:07:27;;;;;;;3.67;2.38;;;;;;;0.33;100.00;102141.06;10369637;28;20049;-72
2024/01/28 16:12:29;;;;;;;4.65;2.35;;;;;;;0.36;100.00;102135.31;10385420;28;20045;-71
2024/01/28 16:17:32;;;;;;;4.20;2.17;;;;;;;0.37;100.00;102126.22;10352636;28;20042;-71
2024/01/28 16:22:34;;;;;;;2.17;1.40;;;;;;;0.32;100.00;102136.69;10369257;28;20410;-71
2024/01/28 16:27:37;;;;;;;4.78;2.13;;;;;;;0.33;100.00;102155.41;10385548;28;20042;-72
2024/01/28 16:32:39;;;;;;;4.57;1.45;;;;;;;0.30;100.00;102148.50;10384917;28;20053;-71
2024/01/28 16:37:42;;;;;;;3.35;2.30;;;;;;;0.35;100.00;102153.38;10352760;28;20513;-71
2024/01/28 16:42:46;;;;;;;4.38;1.33;;;;;;;0.39;100.00;102153.88;10368093;28;20046;-71
2024/01/28 16:47:49;;;;;;;4.32;2.25;;;;;;;0.35;100.00;102145.28;10368781;28;20041;-71
2024/01/28 16:52:52;;;;;;;3.53;1.70;;;;;;;0.55;100.00;102135.72;10352294;28;20426;-71
2024/01/28 16:57:54;;;;;;;3.10;1.70;;;;;;;0.50;100.00;102127.28;10361560;28;20073;-71
2024/01/28 17:02:57;;;;;;;4.68;1.88;;;;;;;0.57;100.00;102120.16;10365522;28;20046;-71
2024/01/28 17:07:59;;;;;;;3.08;1.65;;;;;;;0.35;100.00;102121.00;10415270;28;20042;-71
2024/01/28 17:13:02;;;;;;;3.55;1.67;;;;;;;0.46;100.00;102130.53;10349160;28;20042;-71
2024/01/28 17:18:06;;;;;;;3.75;1.90;;;;;;;0.48;100.00;102114.97;10364963;28;20533;-71
2024/01/28 17:23:09;;;;;;;4.10;2.10;;;;;;;0.63;100.00;102121.31;10365545;28;20037;-71
2024/01/28 17:28:12;;;;;;;1.75;1.17;;;;;;;0.58;100.00;102102.94;10381176;28;20424;-71
2024/01/28 17:33:14;;;;;;;3.17;1.75;;;;;;;0.59;100.00;102107.31;10397254;28;20049;-71
2024/01/28 17:38:17;;;;;;;2.83;1.88;;;;;;;0.64;100.00;102112.16;10365076;28;20516;-71
2024/01/28 17:43:19;;;;;;;2.00;1.70;;;;;;;0.55;100.00;102118.66;10380671;28;20038;-70
2024/01/28 17:48:22;;;;;;;1.17;1.05;;;;;;;0.60;100.00;102127.06;10364642;28;20525;-71
2024/01/28 17:53:25;;;;;;;3.15;1.65;;;;;;;0.52;100.00;102138.78;10380255;28;20053;-71
2024/01/28 17:58:27;;;;;;;2.15;1.30;;;;;;;0.45;100.00;102123.44;10396919;28;20420;-71
2024/01/28 18:03:30;;;;;;;2.53;1.90;;;;;;;0.64;100.00;102120.28;10380682;28;20046;-70
2024/01/28 18:08:33;;;;;;;3.95;1.70;;;;;;;0.42;100.00;102119.25;10394637;28;20048;-71
2024/01/28 18:13:37;;;;;;;2.53;1.42;;;;;;;0.51;100.00;102120.03;10377494;28;20053;-71
2024/01/28 18:18:41;;;;;;;2.58;1.90;;;;;;;0.72;100.00;102104.03;10358337;28;20049;-71
2024/01/28 18:23:43;;;;;;;3.65;1.90;;;;;;;0.70;100.00;102097.97;10389793;28;20048;-70
2024/01/28 18:28:45;;;;;;;3.30;2.10;;;;;;;0.56;100.00;102098.75;10389360;28;20045;-70
2024/01/28 18:33:49;;;;;;;4.18;1.20;;;;;;;0.51;100.00;102103.81;10373227;28;20536;-70
2024/01/28 18:38:53;;;;;;;4.95;1.52;;;;;;;0.44;100.00;102106.41;10373073;28;20038;-71
2024/01/28 18:43:58;;;;;;;1.98;1.70;;;;;;;0.61;100.00;102107.13;10388933;28;20548;-70
2024/01/28 18:49:01;;;;;;;2.38;1.40;;;;;;;0.78;100.00;102092.50;10389463;28;20049;-70
2024/01/28 18:54:04;;;;;;;1.48;1.25;;;;;;;0.64;100.00;102095.97;10372433;28;20053;-70
2024/01/28 18:59:08;;;;;;;2.05;1.58;;;;;;;0.71;100.00;102101.50;10371794;28;20049;-71
2024/01/28 19:04:11;;;;;;;1.88;1.55;;;;;;;0.57;100.00;102105.81;10388124;28;20053;-71
2024/01/28 19:09:13;;;;;;;3.05;1.77;;;;;;;0.75;100.00;102102.81;10355822;28;20064;-72
2024/01/28 19:14:15;;;;;;;2.33;1.73;;;;;;;0.59;100.00;102095.69;10387779;28;20072;-71
2024/01/28 19:19:19;;;;;;;2.50;1.75;;;;;;;0.66;100.00;102093.09;10386124;28;20060;-72
2024/01/28 19:24:22;;;;;;;1.75;1.23;;;;;;;0.85;100.00;102101.53;10339636;28;20042;-71
2024/01/28 19:29:25;;;;;;;0.80;0.80;;;;;;;0.58;100.00;102099.41;10371023;28;20033;-70
2024/01/28 19:34:27;;;;;;;2.83;1.42;;;;;;;0.81;100.00;102092.13;10370793;28;20050;-70
2024/01/28 19:39:32;;;;;;;1.58;1.00;;;;;;;0.74;100.00;102095.75;10387213;28;20305;-70
2024/01/28 19:44:34;;;;;;;2.10;1.08;;;;;;;0.92;100.00;102079.22;10370854;28;20038;-70
2024/01/28 19:49:36;;;;;;;1.63;1.25;;;;;;;0.84;100.00;102080.94;10370291;28;20058;-71
2024/01/28 19:54:39;;;;;;;2.25;1.50;;;;;;;0.60;100.00;102084.69;10369651;28;20403;-71
2024/01/28 19:59:42;;;;;;;1.90;1.00;;;;;;;0.67;100.00;102076.69;10386316;28;20053;-72
2024/01/28 20:04:44;;;;;;;2.33;1.60;;;;;;;0.70;100.00;102065.53;10385918;28;20502;-71
2024/01/28 20:09:47;;;;;;;1.38;0.85;;;;;;;0.84;100.00;102059.31;10385262;28;20049;-72
2024/01/28 20:14:49;;;;;;;3.50;1.50;;;;;;;0.92;100.00;102053.03;10385466;28;20052;-72
2024/01/28 20:19:51;;;;;;;3.35;1.42;;;;;;;0.76;100.00;102050.47;10385298;28;20042;-72
2024/01/28 20:24:54;;;;;;;1.60;0.95;;;;;;;0.89;100.00;102046.13;10385175;28;20498;-72
2024/01/28 20:29:56;;;;;;;2.17;1.33;;;;;;;1.00;100.00;102042.13;10368239;28;20402;-72
2024/01/28 20:34:58;;;;;;;2.17;1.13;;;;;;;0.95;100.00;102038.31;10385032;28;20046;-71
2024/01/28 20:40:01;;;;;;;2.55;1.65;;;;;;;0.84;100.00;102035.00;10368710;28;20049;-70
2024/01/28 20:45:04;;;;;;;3.08;1.27;;;;;;;0.98;100.00;102032.53;10384838;28;20052;-71
2024/01/28 20:50:06;;;;;;;1.30;1.13;;;;;;;0.93;100.00;102030.38;10402194;28;20041;-70
2024/01/28 20:55:09;;;;;;;0.73;0.63;;;;;;;0.79;100.00;102050.94;10384495;28;20061;-71
2024/01/28 21:00:11;;;;;;;1.00;0.85;;;;;;;0.67;100.00;102046.97;10351593;28;20124;-71
2024/01/28 21:05:14;;;;;;;0.77;0.75;;;;;;;0.82;100.00;102055.97;10384299;28;20046;-71
2024/01/28 21:10:16;;;;;;;1.65;1.30;;;;;;;0.99;100.00;102034.19;10384401;28;20045;-71
2024/01/28 21:15:18;;;;;;;1.00;0.93;;;;;;;1.07;100.00;102031.44;10384651;28;20045;-70
2024/01/28 21:20:22;;;;;;;3.60;1.00;;;;;;;0.96;100.00;102037.28;10401293;28;20049;-71
2024/01/28 21:25:24;;;;;;;0.85;0.82;;;;;;;1.00;100.00;102022.38;10367971;28;20045;-72
2024/01/28 21:30:27;;;;;;;1.38;1.00;;;;;;;0.92;100.00;102017.06;10367949;28;20041;-72
2024/01/28 21:35:30;;;;;;;1.08;0.95;;;;;;;0.84;100.00;102012.56;10339501;28;20421;-71
2024/01/28 21:40:32;;;;;;;0.85;0.77;;;;;;;0.78;100.00;102022.25;10385690;28;20042;-71
2024/01/28 21:45:34;;;;;;;0.50;0.50;;;;;;;0.87;100.00;102009.50;10373595;28;20042;-71
2024/01/28 21:50:36;;;;;;;1.10;0.80;;;;;;;0.93;100.00;101997.09;10359055;28;20041;-71
2024/01/28 21:55:41;;;;;;;0.73;0.70;;;;;;;0.96;100.00;101988.63;10374941;28;20053;-71
2024/01/28 22:00:44;;;;;;;2.03;1.00;;;;;;;0.91;100.00;101978.38;10390826;28;20048;-71
2024/01/28 22:05:47;;;;;;;0.70;0.70;;;;;;;0.91;100.00;101978.38;10391287;28;20052;-72
2024/01/28 22:10:50;;;;;;;0.95;0.68;;;;;;;1.05;100.00;101974.03;10358717;28;20057;-72
2024/01/28 22:15:53;;;;;;;1.00;0.80;;;;;;;1.13;100.00;101974.75;10373955;28;20041;-72
2024/01/28 22:20:55;;;;;;;0.70;0.70;;;;;;;1.08;100.00;101976.34;10373771;28;20053;-72
2024/01/28 22:25:58;;;;;;;0.60;0.60;;;;;;;0.99;100.00;101991.78;10357581;28;20073;-70
2024/01/28 22:31:00;;;;;;;0.80;0.80;;;;;;;1.14;100.00;101971.03;10373514;28;20038;-72
2024/01/28 22:36:03;;;;;;;0.63;0.63;;;;;;;1.28;100.00;101980.16;10389660;28;20309;-72
2024/01/28 22:41:06;;;;;;;0.40;0.40;;;;;;;1.11;100.00;101978.66;10356472;28;20421;-72
2024/01/28 22:46:08;;;;;;;0.88;0.73;;;;;;;1.04;100.00;101972.31;10356977;28;20574;-70
2024/01/28 22:51:12;;;;;;;0.98;0.80;;;;;;;0.99;100.00;101964.75;10356655;28;20038;-72
2024/01/28 22:56:14;;;;;;;0.77;0.50;;;;;;;1.02;100.00;101968.97;10387963;28;20057;-72
2024/01/28 23:01:17;;;;;;;1.30;1.00;;;;;;;1.08;100.00;101962.84;10372737;28;20046;-72
2024/01/28 23:06:22;;;;;;;1.60;0.75;;;;;;;1.12;100.00;101953.31;10371843;28;20512;-72
2024/01/28 23:11:24;;;;;;;1.05;0.85;;;;;;;1.05;100.00;101957.81;10388046;28;20501;-72